createdAt,value
2022-08-17T00:01:00.134Z,93.88
2022-08-17T00:01:57.240Z,94.01
2022-08-17T00:02:57.137Z,94.18
2022-08-17T00:03:58.128Z,94.26
2022-08-17T00:04:57.116Z,94.14
2022-08-17T00:05:57.094Z,93.89
2022-08-17T00:06:57.152Z,93.75
2022-08-17T00:07:57.306Z,93.89
2022-08-17T00:08:57.596Z,93.82
2022-08-17T00:09:58.140Z,93.85
2022-08-17T00:10:58.629Z,93.88
2022-08-17T00:12:03.872Z,93.88
2022-08-17T00:12:57.001Z,93.88
2022-08-17T00:13:58.327Z,93.97
2022-08-17T00:14:57.547Z,94.17
2022-08-17T00:15:57.122Z,94.48
2022-08-17T00:17:00.092Z,94.51
2022-08-17T00:17:57.730Z,94.45
2022-08-17T00:19:07.146Z,94.44
2022-08-17T00:19:57.222Z,94.5
2022-08-17T00:20:57.101Z,94.48
2022-08-17T00:22:30.752Z,94.51
2022-08-17T00:22:57.104Z,94.5
2022-08-17T00:23:57.143Z,94.55
2022-08-17T00:24:57.108Z,94.58
2022-08-17T00:25:57.103Z,94.68
2022-08-17T00:26:57.104Z,94.49
2022-08-17T00:28:01.716Z,94.62
2022-08-17T00:28:57.155Z,94.75
2022-08-17T00:29:57.089Z,94.67
2022-08-17T00:30:57.104Z,94.95
2022-08-17T00:31:57.137Z,94.63
2022-08-17T00:33:23.367Z,94.61
2022-08-17T00:33:57.196Z,94.65
2022-08-17T00:34:57.384Z,94.64
2022-08-17T00:35:57.200Z,94.48
2022-08-17T00:36:57.067Z,94.32
2022-08-17T00:37:57.070Z,94.27
2022-08-17T00:38:57.202Z,93.99
2022-08-17T00:39:57.340Z,93.84
2022-08-17T00:41:00.325Z,93.75
2022-08-17T00:42:00.209Z,93.51
2022-08-17T00:42:58.688Z,93.43
2022-08-17T00:43:57.511Z,93.5
2022-08-17T00:44:57.299Z,93.54
2022-08-17T00:45:57.592Z,93.6
2022-08-17T00:46:57.773Z,93.71
2022-08-17T00:47:57.067Z,93.84
2022-08-17T00:48:57.411Z,93.95
2022-08-17T00:49:57.110Z,94.2
2022-08-17T00:50:57.382Z,94.53
2022-08-17T00:51:57.189Z,94.86
2022-08-17T00:52:57.484Z,95.09
2022-08-17T00:53:57.651Z,95.31
2022-08-17T00:54:57.996Z,95.51
2022-08-17T00:55:57.484Z,95.71
2022-08-17T00:56:57.978Z,95.95
2022-08-17T00:57:57.507Z,96.2
2022-08-17T00:58:57.267Z,96.44
2022-08-17T01:00:03.859Z,96.63
2022-08-17T01:00:57.390Z,96.85
2022-08-17T01:01:57.078Z,96.99
2022-08-17T01:02:57.191Z,97.36
2022-08-17T01:04:01.305Z,97.76
2022-08-17T01:04:57.391Z,98.3
2022-08-17T01:05:57.081Z,98.71
2022-08-17T01:06:57.095Z,99.15
2022-08-17T01:07:57.577Z,99.31
2022-08-17T01:09:00.715Z,99.64
2022-08-17T01:09:57.138Z,100
2022-08-17T01:11:02.198Z,100
2022-08-17T01:11:57.372Z,100
2022-08-17T01:12:57.100Z,100
2022-08-17T01:13:57.203Z,100
2022-08-17T01:14:57.261Z,100
2022-08-17T01:15:57.260Z,100
2022-08-17T01:16:57.116Z,100
2022-08-17T01:17:57.300Z,100
2022-08-17T01:18:57.390Z,100
2022-08-17T01:19:57.139Z,100
2022-08-17T01:20:57.100Z,100
2022-08-17T01:21:57.101Z,100
2022-08-17T01:22:57.104Z,100
2022-08-17T01:23:57.110Z,100
2022-08-17T01:24:57.140Z,100
2022-08-17T01:25:57.119Z,100
2022-08-17T01:27:00.118Z,100
2022-08-17T01:27:57.103Z,100
2022-08-17T01:28:57.127Z,100
2022-08-17T01:29:57.139Z,100
2022-08-17T01:31:00.122Z,100
2022-08-17T01:31:57.096Z,100
2022-08-17T01:32:57.100Z,100
2022-08-17T01:33:57.101Z,100
2022-08-17T01:34:57.138Z,100
2022-08-17T01:35:57.108Z,100
2022-08-17T01:36:57.212Z,100
2022-08-17T01:37:57.110Z,100
2022-08-17T01:38:57.109Z,100
2022-08-17T01:39:57.365Z,100
2022-08-17T01:41:00.120Z,100
2022-08-17T01:41:57.089Z,100
2022-08-17T01:42:57.096Z,100
2022-08-17T01:43:57.122Z,100
2022-08-17T01:44:57.127Z,100
2022-08-17T01:46:03.645Z,100
2022-08-17T01:46:57.100Z,100
2022-08-17T01:47:57.111Z,100
2022-08-17T01:48:57.138Z,100
2022-08-17T01:49:57.209Z,100
2022-08-17T01:50:57.096Z,100
2022-08-17T01:51:57.099Z,100
2022-08-17T01:52:57.107Z,100
2022-08-17T01:53:57.097Z,100
2022-08-17T01:54:57.134Z,100
2022-08-17T01:55:57.098Z,100
2022-08-17T01:56:57.112Z,100
2022-08-17T01:57:57.113Z,100
2022-08-17T01:58:57.127Z,100
2022-08-17T01:59:57.114Z,100
2022-08-17T02:01:03.302Z,100
2022-08-17T02:01:57.119Z,100
2022-08-17T02:02:57.104Z,100
2022-08-17T02:04:03.112Z,100
2022-08-17T02:04:57.106Z,100
2022-08-17T02:05:57.102Z,100
2022-08-17T02:06:57.095Z,100
2022-08-17T02:08:01.112Z,100
2022-08-17T02:09:03.763Z,100
2022-08-17T02:09:57.104Z,100
2022-08-17T02:10:57.210Z,100
2022-08-17T02:11:58.115Z,100
2022-08-17T02:12:57.097Z,100
2022-08-17T02:14:03.966Z,100
2022-08-17T02:14:57.112Z,100
2022-08-17T02:15:57.090Z,100
2022-08-17T02:16:57.103Z,100
2022-08-17T02:17:57.091Z,100
2022-08-17T02:18:57.117Z,100
2022-08-17T02:19:57.106Z,100
2022-08-17T02:20:57.114Z,100
2022-08-17T02:21:57.083Z,100
2022-08-17T02:22:57.081Z,100
2022-08-17T02:23:57.077Z,100
2022-08-17T02:25:03.099Z,100
2022-08-17T02:25:57.161Z,100
2022-08-17T02:26:57.168Z,100
2022-08-17T02:27:57.324Z,100
2022-08-17T02:28:57.486Z,100
2022-08-17T02:29:57.262Z,100
2022-08-17T02:31:03.395Z,100
2022-08-17T02:31:57.282Z,100
2022-08-17T02:32:58.188Z,100
2022-08-17T02:34:04.871Z,100
2022-08-17T02:34:57.659Z,100
2022-08-17T02:35:57.407Z,100
2022-08-17T02:36:57.101Z,100
2022-08-17T02:37:57.109Z,100
2022-08-17T02:38:57.106Z,100
2022-08-17T02:39:57.261Z,100
2022-08-17T02:40:57.101Z,100
2022-08-17T02:41:57.131Z,100
2022-08-17T02:42:57.132Z,100
2022-08-17T02:43:57.188Z,100
2022-08-17T02:44:57.131Z,100
2022-08-17T02:45:57.101Z,100
2022-08-17T02:46:57.091Z,100
2022-08-17T02:47:57.102Z,100
2022-08-17T02:48:57.090Z,100
2022-08-17T02:49:57.099Z,100
2022-08-17T02:50:57.100Z,100
2022-08-17T02:51:57.114Z,100
2022-08-17T02:53:04.636Z,100
2022-08-17T02:54:39.050Z,100
2022-08-17T02:54:57.127Z,100
2022-08-17T02:55:57.099Z,100
2022-08-17T02:56:57.109Z,100
2022-08-17T02:57:57.110Z,100
2022-08-17T02:58:57.119Z,100
2022-08-17T02:59:57.097Z,100
2022-08-17T03:01:00.103Z,100
2022-08-17T03:01:57.139Z,100
2022-08-17T03:02:57.134Z,100
2022-08-17T03:03:57.097Z,100
2022-08-17T03:04:57.108Z,100
2022-08-17T03:05:57.199Z,100
2022-08-17T03:06:58.119Z,100
2022-08-17T03:07:57.094Z,100
2022-08-17T03:08:57.098Z,100
2022-08-17T03:09:57.113Z,100
2022-08-17T03:10:57.121Z,100
2022-08-17T03:11:58.107Z,100
2022-08-17T03:12:57.112Z,100
2022-08-17T03:13:57.228Z,100
2022-08-17T03:14:57.120Z,100
2022-08-17T03:15:57.275Z,100
2022-08-17T03:16:57.431Z,100
2022-08-17T03:17:57.152Z,100
2022-08-17T03:18:57.187Z,100
2022-08-17T03:19:57.177Z,100
2022-08-17T03:20:57.185Z,100
2022-08-17T03:21:57.294Z,100
2022-08-17T03:23:03.362Z,100
2022-08-17T03:23:57.181Z,100
2022-08-17T03:24:58.173Z,100
2022-08-17T03:25:57.433Z,100
2022-08-17T03:26:57.631Z,100
2022-08-17T03:27:57.366Z,100
2022-08-17T03:28:57.391Z,100
2022-08-17T03:29:57.565Z,100
2022-08-17T03:30:57.247Z,100
2022-08-17T03:31:57.211Z,100
2022-08-17T03:32:57.713Z,100
2022-08-17T03:33:57.107Z,100
2022-08-17T03:34:57.125Z,100
2022-08-17T03:35:57.115Z,100
2022-08-17T03:36:57.106Z,100
2022-08-17T03:38:03.011Z,100
2022-08-17T03:38:57.094Z,100
2022-08-17T03:39:57.175Z,100
2022-08-17T03:41:01.280Z,100
2022-08-17T03:41:57.170Z,100
2022-08-17T03:42:57.077Z,100
2022-08-17T03:43:57.097Z,100
2022-08-17T03:45:00.203Z,100
2022-08-17T03:45:57.070Z,100
2022-08-17T03:46:57.245Z,100
2022-08-17T03:47:57.371Z,100
2022-08-17T03:48:57.189Z,100
2022-08-17T03:49:57.486Z,100
2022-08-17T03:50:57.459Z,100
2022-08-17T03:51:57.408Z,100
2022-08-17T03:52:57.444Z,100
2022-08-17T03:53:57.331Z,100
2022-08-17T03:54:57.610Z,100
2022-08-17T03:55:57.215Z,100
2022-08-17T03:56:57.622Z,100
2022-08-17T03:57:57.182Z,100
2022-08-17T03:58:57.427Z,100
2022-08-17T03:59:57.278Z,100
2022-08-17T04:00:57.089Z,100
2022-08-17T04:01:57.095Z,100
2022-08-17T04:02:57.110Z,100
2022-08-17T04:03:57.118Z,100
2022-08-17T04:04:57.197Z,100
2022-08-17T04:05:57.524Z,100
2022-08-17T04:06:57.113Z,100
2022-08-17T04:07:57.225Z,100
2022-08-17T04:08:57.310Z,100
2022-08-17T04:09:57.637Z,100
2022-08-17T04:10:57.140Z,100
2022-08-17T04:12:04.662Z,100
2022-08-17T04:12:57.530Z,100
2022-08-17T04:13:57.113Z,100
2022-08-17T04:14:57.125Z,100
2022-08-17T04:15:57.371Z,100
2022-08-17T04:16:57.371Z,100
2022-08-17T04:17:57.535Z,100
2022-08-17T04:18:57.246Z,100
2022-08-17T04:19:57.205Z,100
2022-08-17T04:20:59.892Z,100
2022-08-17T04:21:57.141Z,100
2022-08-17T04:22:57.370Z,100
2022-08-17T04:23:57.075Z,100
2022-08-17T04:25:00.334Z,100
2022-08-17T04:25:57.093Z,100
2022-08-17T04:26:57.224Z,100
2022-08-17T04:27:57.185Z,100
2022-08-17T04:28:57.241Z,100
2022-08-17T04:29:58.132Z,100
2022-08-17T04:30:57.338Z,100
2022-08-17T04:31:57.093Z,100
2022-08-17T04:33:07.014Z,100
2022-08-17T04:33:57.244Z,100
2022-08-17T04:34:57.116Z,100
2022-08-17T04:35:57.112Z,100
2022-08-17T04:36:57.101Z,100
2022-08-17T04:37:57.108Z,100
2022-08-17T04:39:00.171Z,100
2022-08-17T04:40:03.770Z,100
2022-08-17T04:40:57.123Z,100
2022-08-17T04:41:57.122Z,100
2022-08-17T04:43:01.261Z,100
2022-08-17T04:43:57.094Z,100
2022-08-17T04:44:57.131Z,100
2022-08-17T04:45:58.124Z,100
2022-08-17T04:46:57.104Z,100
2022-08-17T04:47:57.102Z,100
2022-08-17T04:48:57.113Z,100
2022-08-17T04:49:57.144Z,100
2022-08-17T04:50:57.109Z,100
2022-08-17T04:52:04.644Z,100
2022-08-17T04:52:57.575Z,100
2022-08-17T04:53:57.111Z,100
2022-08-17T04:54:57.119Z,100
2022-08-17T04:55:57.104Z,100
2022-08-17T04:56:57.107Z,100
2022-08-17T04:57:57.095Z,100
2022-08-17T04:58:57.108Z,100
2022-08-17T04:59:57.127Z,100
2022-08-17T05:00:57.204Z,100
2022-08-17T05:01:57.159Z,100
2022-08-17T05:02:57.103Z,100
2022-08-17T05:03:57.086Z,100
2022-08-17T05:04:58.345Z,100
2022-08-17T05:05:57.138Z,100
2022-08-17T05:06:57.099Z,100
2022-08-17T05:07:57.102Z,100
2022-08-17T05:08:57.106Z,100
2022-08-17T05:09:57.117Z,100
2022-08-17T05:10:57.145Z,100
2022-08-17T05:11:58.115Z,100
2022-08-17T05:12:57.128Z,100
2022-08-17T05:13:57.160Z,100
2022-08-17T05:14:57.091Z,100
2022-08-17T05:15:57.117Z,100
2022-08-17T05:16:57.102Z,100
2022-08-17T05:17:57.095Z,100
2022-08-17T05:18:57.110Z,100
2022-08-17T05:19:57.107Z,100
2022-08-17T05:20:57.154Z,100
2022-08-17T05:21:57.102Z,100
2022-08-17T05:22:57.262Z,100
2022-08-17T05:23:58.103Z,100
2022-08-17T05:24:57.174Z,100
2022-08-17T05:25:57.115Z,100
2022-08-17T05:26:58.687Z,100
2022-08-17T05:27:57.101Z,100
2022-08-17T05:29:03.141Z,100
2022-08-17T05:29:57.096Z,100
2022-08-17T05:30:57.125Z,100
2022-08-17T05:31:57.118Z,100
2022-08-17T05:32:57.093Z,100
2022-08-17T05:33:57.210Z,100
2022-08-17T05:34:58.094Z,100
2022-08-17T05:35:57.134Z,100
2022-08-17T05:36:57.084Z,100
2022-08-17T05:37:58.355Z,100
2022-08-17T05:38:57.126Z,100
2022-08-17T05:39:57.151Z,100
2022-08-17T05:40:57.211Z,100
2022-08-17T05:41:57.455Z,100
2022-08-17T05:42:57.286Z,98
2022-08-17T05:43:58.267Z,97.22
2022-08-17T05:44:57.277Z,95.92
2022-08-17T05:45:58.357Z,96.46
2022-08-17T05:46:57.139Z,96.48
2022-08-17T05:47:57.145Z,95.68
2022-08-17T05:48:57.095Z,95.2
2022-08-17T05:49:58.200Z,94.56
2022-08-17T05:50:57.339Z,94.81
2022-08-17T05:51:57.093Z,94.61
2022-08-17T05:52:57.101Z,95.25
2022-08-17T05:53:57.097Z,95.02
2022-08-17T05:54:57.140Z,94.08
2022-08-17T05:55:57.122Z,93.3
2022-08-17T05:56:57.111Z,93.93
2022-08-17T05:57:58.121Z,94.12
2022-08-17T05:58:57.104Z,93.97
2022-08-17T05:59:57.113Z,93.81
2022-08-17T06:00:57.160Z,92.94
2022-08-17T06:01:57.103Z,92.66
2022-08-17T06:02:57.107Z,92.44
2022-08-17T06:04:03.458Z,92.44
2022-08-17T06:04:57.104Z,92.74
2022-08-17T06:05:57.107Z,93.2
2022-08-17T06:06:57.229Z,93.29
2022-08-17T06:07:57.096Z,92.9
2022-08-17T06:08:57.104Z,91.42
2022-08-17T06:09:57.112Z,91.42
2022-08-17T06:10:58.107Z,91.59
2022-08-17T06:12:00.190Z,91.89
2022-08-17T06:12:57.089Z,91.44
2022-08-17T06:13:57.092Z,90.65
2022-08-17T06:14:58.102Z,90.46
2022-08-17T06:15:57.135Z,88.93
2022-08-17T06:16:57.116Z,88.96
2022-08-17T06:17:57.150Z,90.02
2022-08-17T06:18:57.113Z,90.55
2022-08-17T06:19:57.093Z,90.25
2022-08-17T06:20:57.119Z,89.83
2022-08-17T06:21:57.102Z,90.07
2022-08-17T06:22:57.114Z,88.87
2022-08-17T06:23:58.102Z,88.51
2022-08-17T06:24:57.132Z,86.54
2022-08-17T06:25:57.117Z,83.91
2022-08-17T06:26:57.096Z,82.3
2022-08-17T06:27:57.103Z,81.24
2022-08-17T06:28:57.209Z,80.58
2022-08-17T06:29:57.099Z,78.95
2022-08-17T06:31:03.118Z,78.42
2022-08-17T06:31:57.100Z,78.23
2022-08-17T06:32:57.107Z,78.04
2022-08-17T06:33:57.108Z,79.14
2022-08-17T06:34:57.108Z,78.1
2022-08-17T06:35:59.073Z,76.28
2022-08-17T06:36:57.263Z,76.09
2022-08-17T06:37:57.335Z,75.62
2022-08-17T06:38:57.499Z,75.29
2022-08-17T06:39:57.763Z,75.84
2022-08-17T06:40:58.064Z,75.12
2022-08-17T06:41:57.559Z,75.54
2022-08-17T06:43:05.445Z,75.94
2022-08-17T06:43:57.077Z,76.32
2022-08-17T06:44:58.498Z,75
2022-08-17T06:45:57.689Z,75.83
2022-08-17T06:46:57.060Z,76.06
2022-08-17T06:47:57.391Z,75.6
2022-08-17T06:48:57.712Z,75.56
2022-08-17T06:49:57.118Z,74.77
2022-08-17T06:50:57.100Z,74.9
2022-08-17T06:51:57.121Z,74.32
2022-08-17T06:52:57.247Z,73.63
2022-08-17T06:53:58.140Z,71.95
2022-08-17T06:54:57.099Z,70.6
2022-08-17T06:55:57.097Z,71.42
2022-08-17T06:56:57.085Z,71.4
2022-08-17T06:57:57.090Z,72.21
2022-08-17T06:58:57.159Z,72.33
2022-08-17T06:59:58.114Z,72.07
2022-08-17T07:01:00.255Z,72.16
2022-08-17T07:01:57.165Z,72.52
2022-08-17T07:02:57.127Z,73.35
2022-08-17T07:03:57.109Z,73.35
2022-08-17T07:04:57.102Z,73.63
2022-08-17T07:05:58.098Z,74.21
2022-08-17T07:06:57.099Z,73.46
2022-08-17T07:07:57.108Z,73.36
2022-08-17T07:08:57.101Z,73.27
2022-08-17T07:09:57.097Z,73.51
2022-08-17T07:10:57.102Z,73.66
2022-08-17T07:11:57.104Z,73.76
2022-08-17T07:12:57.111Z,73.58
2022-08-17T07:13:57.281Z,73.67
2022-08-17T07:14:57.093Z,72.91
2022-08-17T07:16:00.123Z,72.33
2022-08-17T07:16:57.100Z,72.71
2022-08-17T07:17:57.186Z,72.86
2022-08-17T07:18:57.136Z,73.2
2022-08-17T07:19:57.092Z,73.31
2022-08-17T07:20:57.109Z,73.54
2022-08-17T07:21:57.373Z,73.71
2022-08-17T07:23:01.112Z,72.75
2022-08-17T07:23:57.400Z,73.47
2022-08-17T07:24:57.416Z,73.07
2022-08-17T07:25:57.279Z,73.53
2022-08-17T07:26:57.068Z,73.04
2022-08-17T07:27:57.323Z,73.11
2022-08-17T07:28:57.524Z,73.16
2022-08-17T07:29:57.814Z,73.47
2022-08-17T07:30:57.200Z,73.85
2022-08-17T07:31:58.432Z,74.61
2022-08-17T07:32:57.221Z,74.85
2022-08-17T07:33:57.140Z,74.54
2022-08-17T07:34:57.144Z,74.67
2022-08-17T07:35:57.433Z,74.54
2022-08-17T07:36:57.378Z,73.67
2022-08-17T07:37:57.103Z,73.42
2022-08-17T07:38:57.102Z,73.26
2022-08-17T07:40:15.677Z,72.94
2022-08-17T07:40:57.110Z,72.34
2022-08-17T07:42:00.675Z,71.2
2022-08-17T07:42:57.103Z,70.7
2022-08-17T07:43:57.261Z,70.14
2022-08-17T07:44:57.232Z,70.24
2022-08-17T07:45:57.253Z,69.23
2022-08-17T07:46:57.219Z,69.71
2022-08-17T07:47:57.099Z,69.6
2022-08-17T07:48:57.356Z,69.15
2022-08-17T07:49:57.114Z,68.7
2022-08-17T07:50:57.095Z,68.06
2022-08-17T07:51:59.996Z,68.13
2022-08-17T07:52:57.093Z,67.54
2022-08-17T07:54:13.434Z,66.71
2022-08-17T07:54:57.128Z,66.04
2022-08-17T07:55:57.110Z,65.42
2022-08-17T07:56:57.107Z,65.15
2022-08-17T07:57:57.124Z,65.25
2022-08-17T07:58:57.104Z,64.86
2022-08-17T07:59:58.136Z,64.29
2022-08-17T08:00:57.102Z,63.03
2022-08-17T08:02:00.169Z,61.25
2022-08-17T08:02:58.113Z,60.9
2022-08-17T08:04:00.118Z,61.38
2022-08-17T08:05:03.264Z,61.87
2022-08-17T08:05:57.112Z,62.83
2022-08-17T08:06:57.263Z,63.51
2022-08-17T08:07:57.116Z,63.61
2022-08-17T08:08:57.097Z,63.72
2022-08-17T08:09:57.089Z,62.23
2022-08-17T08:10:57.102Z,61.36
2022-08-17T08:11:57.099Z,61.62
2022-08-17T08:13:00.115Z,59.37
2022-08-17T08:13:57.125Z,57.91
2022-08-17T08:14:57.101Z,56.86
2022-08-17T08:15:57.106Z,56.17
2022-08-17T08:16:57.104Z,54.18
2022-08-17T08:17:57.110Z,55.3
2022-08-17T08:19:00.137Z,55.31
2022-08-17T08:19:57.178Z,54.25
2022-08-17T08:20:57.090Z,54.68
2022-08-17T08:21:57.098Z,54.91
2022-08-17T08:22:57.093Z,55.1
2022-08-17T08:23:57.118Z,55.93
2022-08-17T08:24:57.092Z,55.85
2022-08-17T08:25:58.110Z,56.25
2022-08-17T08:26:57.122Z,56.46
2022-08-17T08:27:57.104Z,56.72
2022-08-17T08:28:57.128Z,56.77
2022-08-17T08:29:57.083Z,56.24
2022-08-17T08:30:57.215Z,56.22
2022-08-17T08:31:57.101Z,55.32
2022-08-17T08:33:00.122Z,55.51
2022-08-17T08:33:57.088Z,56.49
2022-08-17T08:35:03.487Z,56.6
2022-08-17T08:35:57.110Z,56.8
2022-08-17T08:37:14.129Z,56.99
2022-08-17T08:37:57.235Z,57.02
2022-08-17T08:38:57.209Z,58.03
2022-08-17T08:39:58.502Z,58.52
2022-08-17T08:40:57.065Z,58.47
2022-08-17T08:41:57.499Z,58.79
2022-08-17T08:42:57.392Z,58.03
2022-08-17T08:43:57.837Z,58.33
2022-08-17T08:45:04.028Z,58.06
2022-08-17T08:45:57.311Z,57.91
2022-08-17T08:46:57.636Z,57.94
2022-08-17T08:47:57.080Z,57.43
2022-08-17T08:49:06.653Z,56.32
2022-08-17T08:50:04.957Z,55.43
2022-08-17T08:50:59.811Z,54.79
2022-08-17T08:51:57.305Z,54.36
2022-08-17T08:52:57.392Z,53.62
2022-08-17T08:53:57.317Z,53.31
2022-08-17T08:54:57.152Z,52.98
2022-08-17T08:55:57.227Z,52.11
2022-08-17T08:57:57.717Z,52.23
2022-08-17T08:58:57.734Z,51.33
2022-08-17T09:00:00.927Z,51.56
2022-08-17T09:00:57.105Z,52.17
2022-08-17T09:01:57.487Z,52.66
2022-08-17T09:02:57.596Z,53.21
2022-08-17T09:04:19.875Z,54.75
2022-08-17T09:05:15.459Z,55.11
2022-08-17T09:05:57.099Z,55.7
2022-08-17T09:06:57.102Z,55.59
2022-08-17T09:08:00.573Z,55.23
2022-08-17T09:08:57.091Z,55.61
2022-08-17T09:10:00.414Z,54.72
2022-08-17T09:10:57.107Z,54.24
2022-08-17T09:12:04.168Z,53.84
2022-08-17T09:12:57.105Z,53.42
2022-08-17T09:13:57.109Z,53.73
2022-08-17T09:14:57.114Z,53.68
2022-08-17T09:15:57.099Z,54.02
2022-08-17T09:16:57.112Z,53.99
2022-08-17T09:18:59.697Z,54.28
2022-08-17T09:19:04.570Z,54.15
2022-08-17T09:19:57.100Z,53.94
2022-08-17T09:20:57.102Z,53.97
2022-08-17T09:21:57.114Z,52.88
2022-08-17T09:22:57.185Z,52.5
2022-08-17T09:23:57.104Z,53.2
2022-08-17T09:24:57.184Z,53.8
2022-08-17T09:25:57.098Z,53.66
2022-08-17T09:26:57.107Z,54.15
2022-08-17T09:27:57.104Z,53.55
2022-08-17T09:28:57.094Z,53.89
2022-08-17T09:29:57.103Z,53.91
2022-08-17T09:30:57.111Z,53.63
2022-08-17T09:31:57.126Z,53.22
2022-08-17T09:32:57.110Z,52.11
2022-08-17T09:33:57.112Z,52.51
2022-08-17T09:34:58.107Z,52.52
2022-08-17T09:35:57.306Z,52.76
2022-08-17T09:36:57.090Z,52.25
2022-08-17T09:37:57.090Z,51.49
2022-08-17T09:38:57.114Z,51.86
2022-08-17T09:39:57.130Z,51.53
2022-08-17T09:40:57.107Z,51.51
2022-08-17T09:41:57.106Z,51.12
2022-08-17T09:42:57.102Z,51.43
2022-08-17T09:43:57.105Z,51.52
2022-08-17T09:44:57.107Z,51.87
2022-08-17T09:45:57.122Z,51.91
2022-08-17T09:46:57.106Z,51.69
2022-08-17T09:47:58.112Z,50.79
2022-08-17T09:48:57.103Z,50.35
2022-08-17T09:49:57.097Z,51.79
2022-08-17T09:51:04.386Z,51.29
2022-08-17T09:51:57.095Z,50.95
2022-08-17T09:52:57.203Z,51.75
2022-08-17T09:54:21.321Z,49.64
2022-08-17T09:54:57.643Z,49.72
2022-08-17T09:55:58.526Z,49.65
2022-08-17T09:57:26.138Z,48.78
2022-08-17T09:57:57.047Z,49.62
2022-08-17T09:58:58.300Z,49.45
2022-08-17T09:59:58.655Z,49.82
2022-08-17T10:00:58.905Z,48.82
2022-08-17T10:01:57.361Z,48.28
2022-08-17T10:02:57.740Z,47.32
2022-08-17T10:03:57.121Z,45.23
2022-08-17T10:04:57.125Z,44.42
2022-08-17T10:05:58.585Z,46.1
2022-08-17T10:06:57.129Z,44.23
2022-08-17T10:07:57.119Z,46.28
2022-08-17T10:08:57.106Z,46.72
2022-08-17T10:09:57.118Z,46.65
2022-08-17T10:10:58.109Z,46.66
2022-08-17T10:12:00.607Z,46
2022-08-17T10:12:57.101Z,46.73
2022-08-17T10:14:00.130Z,45.97
2022-08-17T10:14:58.120Z,45.51
2022-08-17T10:15:57.096Z,44.21
2022-08-17T10:16:57.211Z,41.54
2022-08-17T10:17:57.104Z,41.43
2022-08-17T10:18:57.100Z,41.92
2022-08-17T10:19:57.228Z,42.88
2022-08-17T10:20:57.179Z,43.39
2022-08-17T10:22:14.814Z,43.85
2022-08-17T10:22:57.098Z,46.94
2022-08-17T10:23:57.119Z,45.58
2022-08-17T10:25:21.969Z,45.25
2022-08-17T10:25:58.110Z,45.8
2022-08-17T10:26:58.108Z,45.68
2022-08-17T10:27:57.211Z,45.72
2022-08-17T10:28:57.099Z,40.74
2022-08-17T10:29:57.113Z,38.45
2022-08-17T10:31:32.910Z,40.61
2022-08-17T10:31:57.216Z,37.56
2022-08-17T10:32:57.083Z,37.78
2022-08-17T10:33:57.088Z,38.37
2022-08-17T10:34:57.076Z,37.71
2022-08-17T10:36:00.104Z,37.03
2022-08-17T10:36:57.257Z,37.55
2022-08-17T10:37:57.107Z,38.17
2022-08-17T10:38:57.207Z,37.04
2022-08-17T10:39:57.540Z,37.39
2022-08-17T10:40:57.541Z,37.56
2022-08-17T10:41:57.205Z,37.82
2022-08-17T10:42:57.527Z,37.84
2022-08-17T10:44:37.849Z,37.89
2022-08-17T10:44:57.128Z,37.29
2022-08-17T10:46:09.346Z,37.28
2022-08-17T10:46:57.091Z,37.2
2022-08-17T10:48:04.242Z,37.43
2022-08-17T10:48:57.106Z,38.37
2022-08-17T10:49:57.103Z,37.96
2022-08-17T10:50:57.266Z,38.23
2022-08-17T10:51:57.119Z,38.28
2022-08-17T10:52:57.174Z,38.83
2022-08-17T10:53:57.136Z,37.71
2022-08-17T10:55:00.143Z,38.12
2022-08-17T10:55:57.096Z,38.58
2022-08-17T10:56:57.160Z,38.32
2022-08-17T10:57:57.099Z,38.11
2022-08-17T10:58:57.191Z,38.47
2022-08-17T10:59:57.104Z,38.49
2022-08-17T11:00:57.199Z,38.79
2022-08-17T11:01:57.250Z,39.43
2022-08-17T11:02:57.121Z,38.79
2022-08-17T11:03:57.135Z,39.1
2022-08-17T11:04:57.097Z,39.18
2022-08-17T11:05:57.101Z,39.96
2022-08-17T11:06:57.098Z,39.41
2022-08-17T11:07:57.096Z,39.61
2022-08-17T11:08:57.143Z,39.67
2022-08-17T11:09:57.102Z,39.52
2022-08-17T11:10:57.107Z,39.44
2022-08-17T11:11:57.102Z,40.03
2022-08-17T11:12:57.105Z,39.81
2022-08-17T11:13:57.125Z,40.2
2022-08-17T11:14:57.117Z,39.99
2022-08-17T11:16:07.747Z,39.86
2022-08-17T11:16:57.094Z,40.2
2022-08-17T11:17:57.096Z,39.87
2022-08-17T11:18:57.159Z,40.49
2022-08-17T11:19:57.097Z,40.79
2022-08-17T11:20:57.105Z,40.65
2022-08-17T11:21:57.109Z,40.76
2022-08-17T11:22:57.113Z,40.94
2022-08-17T11:23:57.125Z,41.44
2022-08-17T11:24:57.166Z,41.25
2022-08-17T11:25:57.139Z,40.98
2022-08-17T11:26:57.105Z,40.94
2022-08-17T11:27:57.106Z,40.56
2022-08-17T11:28:57.117Z,40.63
2022-08-17T11:30:03.198Z,40.28
2022-08-17T11:30:57.109Z,40.6
2022-08-17T11:31:57.097Z,40.59
2022-08-17T11:32:58.114Z,40.75
2022-08-17T11:33:57.137Z,40.87
2022-08-17T11:34:57.103Z,41.62
2022-08-17T11:35:57.118Z,41.64
2022-08-17T11:36:57.413Z,40.72
2022-08-17T11:37:57.083Z,42.59
2022-08-17T11:39:00.169Z,41.48
2022-08-17T11:39:57.094Z,41.09
2022-08-17T11:40:57.107Z,41.51
2022-08-17T11:41:57.121Z,41.6
2022-08-17T11:42:57.081Z,41.31
2022-08-17T11:43:57.230Z,41.7
2022-08-17T11:44:57.496Z,42.25
2022-08-17T11:45:57.259Z,41.82
2022-08-17T11:46:57.303Z,41.13
2022-08-17T11:48:26.368Z,41.33
2022-08-17T11:48:57.565Z,41.4
2022-08-17T11:49:57.306Z,41.86
2022-08-17T11:50:57.395Z,41.95
2022-08-17T11:51:57.122Z,42.13
2022-08-17T11:52:57.170Z,42.49
2022-08-17T11:54:14.925Z,42.09
2022-08-17T11:55:17.935Z,42.92
2022-08-17T11:55:57.738Z,42.64
2022-08-17T11:56:57.589Z,42.56
2022-08-17T11:57:57.097Z,42.18
2022-08-17T11:58:57.148Z,42.38
2022-08-17T11:59:59.137Z,42.46
2022-08-17T12:00:57.075Z,42.49
2022-08-17T12:01:57.125Z,42.52
2022-08-17T12:02:57.075Z,42.54
2022-08-17T12:03:57.331Z,42.16
2022-08-17T12:04:57.148Z,42.36
2022-08-17T12:05:57.190Z,42.11
2022-08-17T12:06:57.189Z,42.52
2022-08-17T12:07:57.529Z,42.49
2022-08-17T12:08:58.253Z,42.41
2022-08-17T12:09:57.333Z,42.47
2022-08-17T12:10:57.687Z,42.54
2022-08-17T12:12:11.778Z,42.6
2022-08-17T12:12:57.370Z,42.93
2022-08-17T12:13:57.445Z,42.72
2022-08-17T12:15:11.284Z,42.83
2022-08-17T12:15:57.274Z,42.58
2022-08-17T12:16:57.579Z,43.25
2022-08-17T12:17:57.545Z,43.28
2022-08-17T12:18:57.134Z,43.57
2022-08-17T12:19:57.266Z,43.5
2022-08-17T12:20:58.176Z,43.57
2022-08-17T12:21:57.101Z,44.17
2022-08-17T12:22:57.128Z,45.51
2022-08-17T12:23:57.117Z,46.93
2022-08-17T12:24:57.110Z,47.44
2022-08-17T12:25:57.091Z,47.41
2022-08-17T12:26:57.090Z,47.44
2022-08-17T12:28:05.900Z,47.38
2022-08-17T12:29:01.378Z,46.98
2022-08-17T12:29:57.108Z,47.37
2022-08-17T12:30:57.103Z,48.17
2022-08-17T12:31:57.110Z,48.31
2022-08-17T12:32:57.095Z,48.25
2022-08-17T12:33:57.190Z,46.34
2022-08-17T12:34:57.101Z,46.36
2022-08-17T12:36:00.146Z,46.96
2022-08-17T12:36:57.095Z,47.2
2022-08-17T12:37:57.107Z,47.14
2022-08-17T12:38:57.131Z,46.54
2022-08-17T12:39:57.194Z,46.17
2022-08-17T12:41:00.112Z,46.13
2022-08-17T12:42:03.124Z,46
2022-08-17T12:42:57.098Z,45.15
2022-08-17T12:43:57.123Z,45.71
2022-08-17T12:44:57.234Z,45.41
2022-08-17T12:45:57.228Z,44.49
2022-08-17T12:46:57.100Z,44.48
2022-08-17T12:47:57.103Z,44.71
2022-08-17T12:49:01.126Z,44.61
2022-08-17T12:49:57.099Z,45.42
2022-08-17T12:50:57.094Z,44.92
2022-08-17T12:51:57.093Z,44.86
2022-08-17T12:53:03.121Z,45.5
2022-08-17T12:53:57.110Z,46
2022-08-17T12:54:57.209Z,46.2
2022-08-17T12:55:57.109Z,47.56
2022-08-17T12:56:57.097Z,46.79
2022-08-17T12:57:57.125Z,46.23
2022-08-17T12:58:57.099Z,46.56
2022-08-17T12:59:57.125Z,46.71
2022-08-17T13:00:57.115Z,46.67
2022-08-17T13:02:00.190Z,46.44
2022-08-17T13:02:57.084Z,46.49
2022-08-17T13:03:57.110Z,45.82
2022-08-17T13:04:57.113Z,46.43
2022-08-17T13:05:57.123Z,46.47
2022-08-17T13:07:01.110Z,45.9
2022-08-17T13:07:57.124Z,46.83
2022-08-17T13:08:57.302Z,45.72
2022-08-17T13:09:57.103Z,46.65
2022-08-17T13:10:57.098Z,46.91
2022-08-17T13:11:57.114Z,46.41
2022-08-17T13:12:57.117Z,46.58
2022-08-17T13:13:57.097Z,47.44